Forside
METAR-TAF:

METAR-TAF

Lufthavne :

Yap, Mikronesien

Breddekreds: 09-29N, længdekreds: 138-05E, højde: 28 m

Aktuelle vejr

Denne rapport blev lavet for 29 minutter siden, kl. 08:50 UTC
Vind 10 kt fra vestsydvest
Temperatur 28°C
Fugtighed 84%
Tryk 1008 hPa
Sigt: 19.3 km
Nogle få skyer i en højde af 1600 ft
Brudte skyer i en højde af 13000 ft
Overskyet i en højde af 30000 ft

METAR: PTYA 230850Z 25010KT 12SM FEW016 BKN130 OVC300 28/25 A2976 RMK SLP078 8/171 T02830249 53020

Tid: 19:19 (09:19 UTC)

Vejrudsigter

Denne rapport blev lavet for 3 timer og 59 minutter siden, kl. 05:20 UTC
Foreløbig gælder fra 23 på 06 UTC til 24 på 06 UTC
Vind 9 kt fra sydvest
Sigt: 10 km
Spredte skyer i en højde af 1600 ft
Brudte skyer i en højde af 30000 ft
byger i nærheden

TAF: PTYA 230520Z 2306/2406 23009KT P6SM VCSH SCT016 BKN300

Vejrobservationer og prognoser fra mere end 4000 lufthavne (METAR og TAF).

De gule og røde prikker repræsenterer de meteorologiske stationer.

Flyt musen over at se navnet på stationen.

Så klik over at se vejr observationer og prognoser.

At skifte det kort: Klik på de grønne knapper med et sort kors for at zoome ind; på den grønne knap med en bindestreg for at zoome ud; eller på de grønne pile for tilstødende kort.


METAR-TAF: